Arizgoiti, Spain
Current Conditions -  °F | °C
As of 6:30 AM on Friday 31 Oct 2014 (Local Time) from LEBB Reporting Station
Scattered Clouds Scattered Clouds  
Wind Chill: 66°   Ceiling: Unl
Heat Index: 66°   Visibility: 6mi
Dew Point: 52°   Wind: 8mph
Humidity: 60%   Direction: 150°SSE
Pressure: 30.09"   Gusts: NA
Location:  43.23°N, 2.89°W
Report Text: LEBB 310530Z 15007KT 100V190 9999 SCT050 19/11 Q1019 NOSIG
Loading
Personal Weather Stations






























Interactive Weather Map
Tropical Storm Tracking
New forecast layout! Learn more

10-Day Weather Forecast

Advertisements
Track Severe Weather on mobile